Time;durP1;ratioP1;P1;durP2;ratioP2;P2;SDS_P1;SDS_P2;PMS_P1;PMS_P2;Temp;Humidity;BMP_temperature;BMP_pressure;BME280_temperature;BME280_humidity;BME280_pressure;Samples;Min_cycle;Max_cycle;Signal;HPM_P1;HPM_P2
2022/09/17 00:04:21;;;;;;;10.23;2.17;;;;;;;13.39;52.07;100051.09;10152228;29;20252;-79
2022/09/17 00:09:43;;;;;;;7.63;1.47;;;;;;;12.64;53.59;100048.84;10158369;29;20272;-79
2022/09/17 00:15:06;;;;;;;7.37;1.80;;;;;;;13.12;52.80;100049.91;10133851;29;20303;-79
2022/09/17 00:20:28;;;;;;;11.73;2.50;;;;;;;12.69;53.91;100059.94;10119692;29;20662;-80
2022/09/17 00:25:50;;;;;;;7.73;2.30;;;;;;;13.29;52.16;100058.09;10135761;29;20268;-79
2022/09/17 00:31:13;;;;;;;13.80;3.43;;;;;;;13.79;50.97;100059.47;10135910;29;20228;-79
2022/09/17 00:36:36;;;;;;;9.20;3.60;;;;;;;13.01;53.63;100057.25;10136470;29;20206;-79
2022/09/17 00:41:58;;;;;;;9.90;4.93;;;;;;;13.19;52.99;100069.94;10133359;29;20579;-79
2022/09/17 00:47:28;;;;;;;11.77;5.00;;;;;;;13.34;51.76;100060.66;10138114;29;20295;-79
2022/09/17 00:53:12;;;;;;;10.73;5.07;;;;;;;12.75;53.06;100054.84;10160918;29;20879;-79
2022/09/17 00:58:34;;;;;;;14.33;5.03;;;;;;;13.52;50.95;100071.69;10153111;29;20287;-80
2022/09/17 01:03:57;;;;;;;8.60;4.10;;;;;;;13.28;51.33;100072.63;10156433;29;20248;-81
2022/09/17 01:09:40;;;;;;;13.27;3.80;;;;;;;13.19;52.46;100074.78;10163491;29;20259;-79
2022/09/17 01:15:26;;;;;;;6.80;2.80;;;;;;;13.51;50.73;100076.53;10152357;29;20260;-79
2022/09/17 01:21:06;;;;;;;7.93;2.47;;;;;;;13.00;51.48;100072.56;10163848;29;20228;-80
2022/09/17 01:26:52;;;;;;;8.47;2.30;;;;;;;13.51;50.45;100065.19;10128266;29;20260;-79
2022/09/17 01:32:34;;;;;;;6.20;2.03;;;;;;;13.24;50.93;100078.19;10121415;29;20248;-79
2022/09/17 01:38:10;;;;;;;11.83;2.93;;;;;;;13.32;50.35;100080.03;10125580;29;20487;-79
2022/09/17 01:43:45;;;;;;;9.57;2.57;;;;;;;13.56;49.76;100081.06;10152139;29;20220;-79
2022/09/17 01:49:08;;;;;;;8.20;2.70;;;;;;;12.93;51.77;100083.66;10137521;29;20209;-87
2022/09/17 01:54:36;;;;;;;10.47;2.53;;;;;;;12.44;53.18;100094.25;10154147;29;20202;-79
2022/09/17 02:00:03;;;;;;;9.07;2.70;;;;;;;13.23;50.71;100082.19;10159129;29;20201;-80
2022/09/17 02:05:30;;;;;;;14.67;3.90;;;;;;;12.51;52.84;100095.28;10135682;29;20252;-79
2022/09/17 02:11:04;;;;;;;9.73;3.40;;;;;;;12.75;51.35;100099.28;10158190;29;20256;-87
2022/09/17 02:16:28;;;;;;;13.17;3.57;;;;;;;13.03;51.53;100094.50;10123319;29;20277;-79
2022/09/17 02:22:11;;;;;;;10.53;4.00;;;;;;;13.11;51.30;100093.53;10148111;29;20217;-78
2022/09/17 02:27:44;;;;;;;9.30;3.17;;;;;;;12.86;51.72;100089.94;10145512;29;20785;-79
2022/09/17 02:33:08;;;;;;;16.43;4.17;;;;;;;12.92;51.97;100085.66;10143325;29;20204;-79
2022/09/17 02:38:31;;;;;;;10.80;3.37;;;;;;;13.24;50.66;100081.00;10153699;29;20200;-79
2022/09/17 02:44:03;;;;;;;15.10;4.13;;;;;;;12.90;52.12;100095.72;10136962;29;20249;-79
2022/09/17 02:49:53;;;;;;;14.67;3.57;;;;;;;12.97;51.29;100090.25;10133838;29;20253;-79
2022/09/17 02:55:28;;;;;;;12.50;3.40;;;;;;;12.78;52.24;100098.53;10129013;29;20205;-79
2022/09/17 03:00:51;;;;;;;15.33;4.07;;;;;;;12.41;53.70;100107.06;10109910;29;20209;-79
2022/09/17 03:06:13;;;;;;;11.90;3.10;;;;;;;13.03;52.10;100100.97;10130952;29;20526;-79
2022/09/17 03:11:35;;;;;;;13.10;2.93;;;;;;;13.24;51.21;100094.34;10137878;29;20197;-79
2022/09/17 03:16:57;;;;;;;11.40;3.50;;;;;;;12.79;52.33;100105.84;10116831;29;20250;-79
2022/09/17 03:22:19;;;;;;;10.83;3.10;;;;;;;13.08;51.18;100105.56;10129540;29;20229;-78
2022/09/17 03:27:41;;;;;;;11.30;2.70;;;;;;;13.30;51.32;100105.03;10129249;29;20202;-79
2022/09/17 03:33:03;;;;;;;17.03;3.53;;;;;;;13.11;51.11;100110.50;10122399;29;20602;-79
2022/09/17 03:38:25;;;;;;;9.43;2.87;;;;;;;12.96;50.93;100109.25;10137061;29;20201;-79
2022/09/17 03:43:47;;;;;;;11.57;2.60;;;;;;;13.27;50.70;100111.44;10136325;29;20249;-79
2022/09/17 03:49:09;;;;;;;8.07;2.00;;;;;;;13.21;50.54;100112.84;10133578;29;20276;-80
2022/09/17 03:54:31;;;;;;;11.30;2.13;;;;;;;13.22;50.11;100120.16;10128101;29;20213;-79
2022/09/17 03:59:53;;;;;;;11.80;2.27;;;;;;;13.50;49.26;100114.50;10128600;29;20548;-86
2022/09/17 04:05:15;;;;;;;13.70;2.10;;;;;;;13.09;49.76;100120.53;10136106;29;20228;-81
2022/09/17 04:10:37;;;;;;;16.23;2.63;;;;;;;12.75;51.66;100130.38;10144351;29;20244;-80
2022/09/17 04:15:59;;;;;;;9.17;3.27;;;;;;;13.51;48.72;100118.16;10131088;29;20213;-80
2022/09/17 04:21:21;;;;;;;16.27;2.27;;;;;;;12.75;50.89;100127.56;10130836;29;20193;-80
2022/09/17 04:26:43;;;;;;;9.53;2.13;;;;;;;12.68;50.42;100131.78;10132996;29;20232;-81
2022/09/17 04:32:05;;;;;;;9.63;2.27;;;;;;;12.65;50.32;100135.31;10143436;29;20551;-80
2022/09/17 04:37:27;;;;;;;10.80;1.53;;;;;;;11.95;52.08;100139.38;10129158;29;20276;-80
2022/09/17 04:42:54;;;;;;;9.00;1.93;;;;;;;12.77;50.79;100139.34;10141963;29;20201;-80
2022/09/17 04:48:16;;;;;;;10.00;1.60;;;;;;;13.24;49.75;100139.63;10117007;29;20205;-80
2022/09/17 04:53:38;;;;;;;10.30;1.80;;;;;;;13.24;49.35;100131.13;10125723;29;20205;-80
2022/09/17 04:59:01;;;;;;;7.67;1.77;;;;;;;13.39;48.59;100142.53;10125920;29;20645;-80
2022/09/17 05:04:23;;;;;;;10.80;1.87;;;;;;;13.53;48.71;100146.94;10128178;29;20217;-80
2022/09/17 05:09:45;;;;;;;7.50;1.87;;;;;;;12.67;50.46;100155.59;10128866;29;20201;-80
2022/09/17 05:15:07;;;;;;;9.90;1.37;;;;;;;13.02;49.56;100150.25;10141463;29;20273;-79
2022/09/17 05:20:29;;;;;;;11.83;1.73;;;;;;;12.69;50.51;100158.91;10141696;29;20519;-79
2022/09/17 05:25:51;;;;;;;6.80;1.40;;;;;;;12.67;50.83;100152.75;10127266;29;20232;-80
2022/09/17 05:31:14;;;;;;;8.23;1.77;;;;;;;12.86;50.13;100165.50;10144768;29;20915;-80
2022/09/17 05:36:36;;;;;;;9.73;1.30;;;;;;;13.25;48.88;100159.06;10164391;29;20197;-80
2022/09/17 05:41:58;;;;;;;4.07;1.10;;;;;;;12.69;49.71;100164.56;10170278;29;20220;-80
2022/09/17 05:47:20;;;;;;;6.67;1.03;;;;;;;12.62;50.71;100161.50;10139622;29;20221;-80
2022/09/17 05:52:42;;;;;;;3.73;0.97;;;;;;;11.98;51.86;100173.41;10166869;29;20197;-85
2022/09/17 05:58:18;;;;;;;7.40;1.50;;;;;;;12.66;49.25;100164.44;10163452;29;20241;-80
2022/09/17 06:03:40;;;;;;;10.80;1.90;;;;;;;12.59;50.00;100182.00;10146579;29;20634;-79
2022/09/17 06:09:02;;;;;;;8.20;1.30;;;;;;;12.66;50.27;100181.38;10160689;29;20208;-80
2022/09/17 06:14:24;;;;;;;5.60;1.13;;;;;;;13.65;48.51;100183.72;10128585;29;20221;-80
2022/09/17 06:19:46;;;;;;;8.30;1.20;;;;;;;13.57;48.31;100207.31;10119306;29;20265;-80
2022/09/17 06:25:08;;;;;;;7.90;1.27;;;;;;;12.87;50.00;100215.22;10113116;29;20221;-79
2022/09/17 06:30:30;;;;;;;11.87;2.23;;;;;;;12.96;49.13;100216.75;10098493;29;20265;-79
2022/09/17 06:36:00;;;;;;;10.47;1.30;;;;;;;12.96;49.46;100224.41;10119668;29;20234;-80
2022/09/17 06:41:22;;;;;;;11.27;1.30;;;;;;;12.59;49.14;100224.41;10137793;29;20784;-79
2022/09/17 06:46:44;;;;;;;7.63;1.57;;;;;;;13.19;47.29;100233.25;10127131;29;20566;-79
2022/09/17 06:52:06;;;;;;;7.37;1.13;;;;;;;13.22;48.19;100224.06;10099825;29;20257;-79
2022/09/17 06:57:28;;;;;;;6.13;1.10;;;;;;;12.90;47.82;100228.66;10105354;29;20276;-79
2022/09/17 07:02:57;;;;;;;8.70;1.27;;;;;;;12.61;48.95;100229.72;10114020;29;20240;-79
2022/09/17 07:08:24;;;;;;;5.13;1.30;;;;;;;12.87;48.08;100238.69;10091048;29;20244;-79
2022/09/17 07:13:48;;;;;;;6.63;1.17;;;;;;;13.57;47.57;100227.97;10110414;29;20289;-79
2022/09/17 07:19:10;;;;;;;9.07;1.03;;;;;;;13.31;47.28;100227.56;10113279;29;20665;-79
2022/09/17 07:24:33;;;;;;;6.17;0.93;;;;;;;13.55;46.19;100229.53;10138556;29;20260;-79
2022/09/17 07:29:55;;;;;;;8.73;1.10;;;;;;;13.68;45.92;100233.97;10151608;29;20244;-79
2022/09/17 07:35:17;;;;;;;6.03;0.90;;;;;;;14.04;44.67;100228.19;10128528;29;20264;-79
2022/09/17 07:40:39;;;;;;;5.67;1.13;;;;;;;13.34;45.62;100235.34;10126824;29;20273;-80
2022/09/17 07:46:03;;;;;;;6.53;1.20;;;;;;;13.77;45.21;100231.81;10136847;29;20256;-79
2022/09/17 07:51:27;;;;;;;6.53;1.50;;;;;;;13.86;45.38;100223.97;10113727;29;20662;-79
2022/09/17 07:56:49;;;;;;;5.93;1.00;;;;;;;13.25;46.66;100232.66;10114400;29;20202;-79
2022/09/17 08:02:12;;;;;;;6.57;1.20;;;;;;;13.83;44.60;100226.69;10111581;29;20260;-80
2022/09/17 08:07:34;;;;;;;7.17;1.27;;;;;;;13.99;45.57;100231.28;10146631;29;20602;-79
2022/09/17 08:12:58;;;;;;;8.33;1.47;;;;;;;13.88;44.75;100232.94;10128478;29;20301;-78
2022/09/17 08:18:20;;;;;;;6.73;1.17;;;;;;;13.42;44.75;100233.59;10158024;29;20201;-82
2022/09/17 08:23:43;;;;;;;8.70;1.10;;;;;;;14.30;43.43;100226.88;10118141;29;20337;-81
2022/09/17 08:29:06;;;;;;;9.17;1.23;;;;;;;13.58;45.07;100221.13;10153973;29;20231;-77
2022/09/17 08:34:28;;;;;;;6.37;0.97;;;;;;;14.25;44.01;100219.44;10162832;29;20235;-78
2022/09/17 08:39:50;;;;;;;7.70;1.20;;;;;;;14.00;42.71;100235.75;10116523;29;20288;-78
2022/09/17 08:45:13;;;;;;;1.10;0.33;;;;;;;13.56;42.67;100225.50;10110838;29;20249;-79
2022/09/17 08:50:40;;;;;;;5.23;0.50;;;;;;;14.71;41.24;100223.50;10111368;29;20849;-79
2022/09/17 08:56:10;;;;;;;4.70;0.87;;;;;;;14.13;41.68;100227.19;10120202;29;20630;-77
2022/09/17 09:01:47;;;;;;;5.50;0.90;;;;;;;14.20;40.54;100241.56;10107466;29;20312;-77
2022/09/17 09:07:18;;;;;;;3.37;0.60;;;;;;;14.92;40.04;100225.25;10113636;29;20339;-79
2022/09/17 09:12:40;;;;;;;7.60;0.50;;;;;;;14.38;41.05;100229.50;10095563;29;20877;-77
2022/09/17 09:18:12;;;;;;;5.40;0.70;;;;;;;14.14;42.66;100228.84;10106665;29;20304;-85
2022/09/17 09:23:47;;;;;;;4.90;0.63;;;;;;;14.21;40.14;100229.03;10111403;29;20598;-77
2022/09/17 09:29:35;;;;;;;3.97;0.80;;;;;;;14.16;41.13;100220.81;10118654;29;20262;-85
2022/09/17 09:35:01;;;;;;;5.87;0.60;;;;;;;14.39;40.13;100213.31;10122298;29;20228;-77
2022/09/17 09:40:30;;;;;;;5.63;0.80;;;;;;;14.91;39.30;100230.09;10101038;29;20232;-81
2022/09/17 09:46:15;;;;;;;5.50;0.60;;;;;;;15.05;37.80;100221.09;10130477;29;20257;-78
2022/09/17 09:51:49;;;;;;;6.57;0.83;;;;;;;15.24;38.06;100221.13;10150140;29;20287;-79
2022/09/17 09:57:18;;;;;;;2.70;0.40;;;;;;;15.74;37.10;100222.31;10138704;29;20231;-86
2022/09/17 10:02:41;;;;;;;5.17;1.27;;;;;;;14.62;38.06;100228.50;10135042;29;20563;-81
2022/09/17 10:08:13;;;;;;;6.43;0.53;;;;;;;15.30;36.05;100213.16;10144440;29;20237;-86
2022/09/17 10:13:37;;;;;;;5.83;0.53;;;;;;;15.38;35.71;100212.13;10131057;29;20245;-82
2022/09/17 10:19:04;;;;;;;2.33;0.20;;;;;;;14.14;38.07;100217.50;10145043;29;21213;-80
2022/09/17 10:24:32;;;;;;;2.23;0.40;;;;;;;14.80;37.14;100209.97;10111690;29;20678;-88
2022/09/17 10:30:12;;;;;;;4.80;0.53;;;;;;;15.36;35.77;100206.84;10104498;29;20296;-86
2022/09/17 10:35:34;;;;;;;4.43;0.33;;;;;;;14.10;37.58;100206.06;10111540;29;20318;-84
2022/09/17 10:41:13;;;;;;;1.10;0.23;;;;;;;14.36;36.29;100199.88;10128294;29;20295;-84
2022/09/17 10:46:35;;;;;;;2.30;0.20;;;;;;;15.59;35.78;100186.25;10129769;29;20642;-83
2022/09/17 10:52:22;;;;;;;4.40;0.47;;;;;;;15.43;34.54;100184.28;10114853;29;20228;-82
2022/09/17 10:57:57;;;;;;;4.03;0.47;;;;;;;14.39;35.96;100193.47;10124968;29;20237;-79
2022/09/17 11:03:30;;;;;;;6.50;0.50;;;;;;;15.21;35.79;100190.69;10125645;29;20289;-79
2022/09/17 11:09:01;;;;;;;1.13;0.30;;;;;;;15.62;34.83;100191.19;10126677;29;20294;-78
2022/09/17 11:14:45;;;;;;;2.67;0.10;;;;;;;14.90;35.95;100200.06;10123425;29;20323;-78
2022/09/17 11:20:16;;;;;;;1.27;0.20;;;;;;;15.82;35.08;100198.50;10109326;29;20229;-78
2022/09/17 11:25:50;;;;;;;0.97;0.10;;;;;;;15.32;36.21;100205.94;10116042;29;20325;-78
2022/09/17 11:31:35;;;;;;;1.77;0.30;;;;;;;15.15;36.85;100212.00;10126084;29;20278;-78
2022/09/17 11:37:03;;;;;;;0.90;0.20;;;;;;;15.73;36.70;100200.75;10125758;29;20813;-78
2022/09/17 11:42:36;;;;;;;0.70;0.10;;;;;;;16.17;36.44;100201.22;10095508;29;20289;-77
2022/09/17 11:48:11;;;;;;;0.67;0.00;;;;;;;15.33;35.91;100196.22;10090586;29;20257;-78
2022/09/17 11:53:41;;;;;;;4.40;0.30;;;;;;;15.93;36.46;100176.81;10094478;29;20293;-77
2022/09/17 11:59:24;;;;;;;1.53;0.20;;;;;;;15.77;35.79;100181.75;10095467;29;20237;-78
2022/09/17 12:05:05;;;;;;;2.87;0.30;;;;;;;15.98;34.93;100175.69;10126592;29;20252;-78
2022/09/17 12:10:31;;;;;;;1.07;0.20;;;;;;;15.84;35.65;100170.53;10091013;29;20355;-77
2022/09/17 12:16:05;;;;;;;1.70;0.40;;;;;;;15.27;37.18;100183.50;10105851;29;20625;-77
2022/09/17 12:21:32;;;;;;;1.83;0.37;;;;;;;14.69;41.89;100202.34;10096327;29;20234;-78
2022/09/17 12:27:02;;;;;;;2.37;0.43;;;;;;;13.85;44.65;100213.00;10030073;29;20847;-77
2022/09/17 12:32:51;;;;;;;1.87;0.30;;;;;;;13.91;44.93;100212.41;10029812;29;20295;-78
2022/09/17 12:38:18;;;;;;;2.63;0.30;;;;;;;14.43;44.84;100200.06;10019072;29;21067;-78
2022/09/17 12:43:58;;;;;;;5.03;0.50;;;;;;;15.26;46.14;100189.53;10042062;29;20264;-77
2022/09/17 12:49:32;;;;;;;1.80;0.20;;;;;;;14.65;44.08;100199.44;10029365;29;20530;-78
2022/09/17 12:55:10;;;;;;;1.03;0.40;;;;;;;14.27;46.24;100199.22;10045905;29;20305;-79
2022/09/17 13:00:38;;;;;;;2.87;0.50;;;;;;;14.74;43.16;100176.53;10055533;29;20245;-84
2022/09/17 13:06:36;;;;;;;2.47;0.10;;;;;;;15.10;43.84;100195.28;10051518;29;20726;-78
2022/09/17 13:12:12;;;;;;;2.30;0.27;;;;;;;15.43;41.57;100194.81;10057887;29;20289;-84
2022/09/17 13:17:38;;;;;;;3.57;0.70;;;;;;;13.58;47.64;100200.47;10051873;29;20314;-79
2022/09/17 13:23:00;;;;;;;2.97;0.20;;;;;;;13.53;46.68;100198.75;10026610;29;20292;-84
2022/09/17 13:28:38;;;;;;;2.47;0.80;;;;;;;12.92;46.83;100207.31;10109813;29;20278;-78
2022/09/17 13:34:01;;;;;;;1.27;0.30;;;;;;;14.46;45.14;100191.63;10101386;29;20249;-79
2022/09/17 13:39:39;;;;;;;3.83;0.40;;;;;;;15.71;42.83;100184.09;10111763;29;20232;-83
2022/09/17 13:45:06;;;;;;;2.43;0.13;;;;;;;14.42;45.02;100181.41;10101189;29;20317;-79
2022/09/17 13:50:42;;;;;;;2.03;0.30;;;;;;;15.50;41.77;100187.28;10121170;29;20294;-83
2022/09/17 13:56:32;;;;;;;2.50;0.30;;;;;;;14.05;44.36;100195.81;10110578;29;20548;-86
2022/09/17 14:02:23;;;;;;;1.20;0.40;;;;;;;14.66;42.74;100188.91;10115896;29;20245;-78
2022/09/17 14:07:48;;;;;;;2.13;0.50;;;;;;;14.61;42.89;100192.81;10111224;29;20630;-77
2022/09/17 14:13:43;;;;;;;1.70;0.63;;;;;;;14.67;42.51;100185.69;10126823;29;20242;-79
2022/09/17 14:19:14;;;;;;;1.27;0.30;;;;;;;15.32;42.11;100188.91;10095414;29;20240;-77
2022/09/17 14:24:43;;;;;;;2.10;0.20;;;;;;;16.04;41.21;100192.03;10105518;29;20281;-83
2022/09/17 14:30:17;;;;;;;2.20;0.40;;;;;;;15.02;42.88;100184.94;10107059;29;20236;-80
2022/09/17 14:35:44;;;;;;;3.13;0.20;;;;;;;14.45;43.44;100192.84;10110926;29;20309;-84
2022/09/17 14:41:18;;;;;;;2.23;0.40;;;;;;;13.90;43.78;100205.09;10116834;29;20300;-78
2022/09/17 14:47:09;;;;;;;1.93;0.20;;;;;;;13.29;45.01;100216.59;10118536;29;20256;-82
2022/09/17 14:52:32;;;;;;;1.20;0.20;;;;;;;15.37;41.48;100207.66;10112869;29;20229;-78
2022/09/17 14:57:56;;;;;;;2.43;0.30;;;;;;;14.83;42.34;100211.25;10116285;29;20282;-78
2022/09/17 15:03:22;;;;;;;2.20;0.30;;;;;;;15.76;41.13;100192.28;10096305;29;20261;-77
2022/09/17 15:08:44;;;;;;;2.10;0.33;;;;;;;15.69;39.71;100200.69;10122066;29;20252;-79
2022/09/17 15:14:15;;;;;;;2.00;0.47;;;;;;;15.55;39.71;100196.72;10116228;29;20711;-78
2022/09/17 15:19:39;;;;;;;3.50;0.33;;;;;;;14.05;42.02;100192.16;10123366;29;20236;-77
2022/09/17 15:25:22;;;;;;;2.50;0.20;;;;;;;15.13;42.03;100184.00;10113731;29;20300;-83
2022/09/17 15:30:49;;;;;;;2.50;0.50;;;;;;;16.46;39.25;100191.22;10106300;29;20291;-83
2022/09/17 15:36:17;;;;;;;3.43;0.40;;;;;;;15.25;40.89;100182.22;10101285;29;20229;-79
2022/09/17 15:41:40;;;;;;;4.07;0.67;;;;;;;15.81;38.94;100176.97;10115129;29;20230;-82
2022/09/17 15:47:40;;;;;;;2.70;0.50;;;;;;;14.58;39.13;100192.75;10123678;29;20634;-78
2022/09/17 15:53:08;;;;;;;5.60;0.40;;;;;;;14.34;39.34;100185.22;10119615;29;20634;-78
2022/09/17 15:58:35;;;;;;;2.40;0.70;;;;;;;14.16;38.82;100195.28;10113029;29;20305;-78
2022/09/17 16:03:57;;;;;;;4.07;0.57;;;;;;;14.04;39.87;100182.84;10112988;29;20309;-78
2022/09/17 16:09:47;;;;;;;6.17;0.43;;;;;;;14.13;38.73;100205.34;10128576;29;20260;-78
2022/09/17 16:15:11;;;;;;;3.30;0.60;;;;;;;14.02;37.84;100196.53;10115034;29;20611;-79
2022/09/17 16:20:33;;;;;;;1.13;0.20;;;;;;;14.73;37.97;100195.56;10131693;29;20237;-79
2022/09/17 16:25:56;;;;;;;4.57;0.47;;;;;;;14.64;38.52;100208.28;10121704;29;20646;-80
2022/09/17 16:31:18;;;;;;;3.37;0.57;;;;;;;14.95;40.06;100213.16;10122404;29;20236;-81
2022/09/17 16:36:40;;;;;;;3.37;0.33;;;;;;;14.71;43.29;100220.66;10121558;29;20293;-86
2022/09/17 16:42:03;;;;;;;8.47;0.83;;;;;;;13.62;44.07;100224.06;10127750;29;20236;-83
2022/09/17 16:47:25;;;;;;;2.07;0.30;;;;;;;13.87;44.41;100224.81;10122912;29;20265;-80
2022/09/17 16:52:48;;;;;;;4.53;0.47;;;;;;;13.97;44.00;100230.78;10113781;29;20233;-86
2022/09/17 16:58:10;;;;;;;2.60;0.50;;;;;;;13.86;43.58;100238.13;10117274;29;20706;-85
2022/09/17 17:03:33;;;;;;;5.00;0.60;;;;;;;13.68;43.73;100233.97;10095852;29;20619;-81
2022/09/17 17:08:59;;;;;;;4.50;0.60;;;;;;;14.05;44.28;100238.34;10101587;29;20316;-79
2022/09/17 17:14:21;;;;;;;5.87;0.80;;;;;;;14.19;44.03;100242.75;10110544;29;20293;-79
2022/09/17 17:19:45;;;;;;;5.30;0.90;;;;;;;13.67;44.05;100252.16;10112067;29;20241;-85
2022/09/17 17:25:08;;;;;;;4.30;0.90;;;;;;;14.10;43.20;100238.06;10111268;29;20675;-82
2022/09/17 17:30:31;;;;;;;2.63;0.70;;;;;;;13.52;44.20;100250.06;10118275;29;20539;-80
2022/09/17 17:35:58;;;;;;;9.10;0.80;;;;;;;14.33;43.83;100249.63;10101974;29;20213;-79
2022/09/17 17:41:22;;;;;;;5.03;0.60;;;;;;;14.42;42.93;100252.31;10047744;29;20292;-79
2022/09/17 17:46:43;;;;;;;4.17;0.70;;;;;;;14.29;42.39;100260.06;10067650;29;20580;-80
2022/09/17 17:52:06;;;;;;;4.77;0.83;;;;;;;14.53;41.72;100259.09;10079003;29;20233;-80
2022/09/17 17:57:28;;;;;;;5.00;1.00;;;;;;;14.26;42.50;100265.63;10084535;29;20227;-81
2022/09/17 18:02:50;;;;;;;4.03;0.80;;;;;;;14.29;42.52;100267.75;10088671;29;20265;-79
2022/09/17 18:08:12;;;;;;;4.50;0.70;;;;;;;13.73;42.71;100293.19;10088471;29;20640;-79
2022/09/17 18:13:36;;;;;;;6.50;0.93;;;;;;;13.94;41.94;100291.00;10088574;29;20583;-83
2022/09/17 18:18:58;;;;;;;5.90;0.90;;;;;;;13.89;43.21;100296.94;10074009;29;20222;-81
2022/09/17 18:24:20;;;;;;;4.60;0.97;;;;;;;14.38;41.07;100299.56;10079874;29;20261;-85
2022/09/17 18:29:42;;;;;;;4.77;1.13;;;;;;;14.18;42.07;100311.97;10077864;29;20241;-85
2022/09/17 18:35:04;;;;;;;5.43;0.87;;;;;;;14.24;42.30;100319.00;10080152;29;20619;-84
2022/09/17 18:40:27;;;;;;;5.63;1.33;;;;;;;13.92;42.69;100312.38;10097835;29;20237;-85
2022/09/17 18:45:54;;;;;;;4.80;1.03;;;;;;;13.69;43.95;100334.72;10079051;29;20548;-82
2022/09/17 18:51:16;;;;;;;3.60;0.80;;;;;;;14.32;42.21;100327.38;10092785;29;20254;-87
2022/09/17 18:56:40;;;;;;;7.77;1.10;;;;;;;14.13;43.08;100332.06;10079172;29;20222;-86
2022/09/17 19:02:02;;;;;;;3.63;0.80;;;;;;;13.59;44.60;100338.06;10078738;29;20269;-88
2022/09/17 19:07:24;;;;;;;5.37;0.90;;;;;;;14.08;44.16;100339.63;10081080;29;20300;-85
2022/09/17 19:12:48;;;;;;;6.13;1.13;;;;;;;13.71;44.42;100344.53;10084411;29;20250;-88
2022/09/17 19:18:12;;;;;;;7.90;1.83;;;;;;;13.67;44.04;100340.78;10103618;29;20233;-83
2022/09/17 19:23:34;;;;;;;4.90;0.70;;;;;;;13.89;43.78;100336.59;10104962;29;20268;-86
2022/09/17 19:28:59;;;;;;;7.17;1.40;;;;;;;14.53;43.98;100338.50;10084945;29;20256;-85
2022/09/17 19:34:21;;;;;;;6.80;1.27;;;;;;;14.19;44.02;100333.47;10099544;29;20230;-80
2022/09/17 19:39:43;;;;;;;6.70;1.00;;;;;;;14.45;44.22;100330.97;10099681;29;20233;-86
2022/09/17 19:45:06;;;;;;;12.30;1.27;;;;;;;14.24;44.64;100342.53;10097918;29;20242;-87
2022/09/17 19:50:28;;;;;;;8.97;1.87;;;;;;;14.04;44.67;100338.72;10109177;29;20236;-86
2022/09/17 19:55:51;;;;;;;6.83;1.57;;;;;;;14.41;43.98;100336.56;10098014;29;20221;-85
2022/09/17 20:01:13;;;;;;;7.37;1.67;;;;;;;13.63;44.63;100347.50;10112568;29;20260;-84
2022/09/17 20:06:36;;;;;;;5.23;1.10;;;;;;;13.98;43.52;100337.25;10084248;29;20651;-88
2022/09/17 20:11:59;;;;;;;4.73;1.10;;;;;;;14.41;42.77;100335.72;10106041;29;20233;-84
2022/09/17 20:17:21;;;;;;;6.83;0.80;;;;;;;14.17;44.13;100335.84;10094826;29;20273;-85
2022/09/17 20:22:43;;;;;;;4.70;1.30;;;;;;;14.42;42.54;100334.53;10059744;29;1041599;-85
2022/09/17 20:28:05;;;;;;;7.93;1.43;;;;;;;13.74;44.07;100343.81;10098524;29;20586;-84
2022/09/17 20:33:27;;;;;;;7.87;1.10;;;;;;;13.78;44.42;100343.13;10094062;29;20241;-88
2022/09/17 20:38:50;;;;;;;10.07;1.63;;;;;;;13.34;44.65;100349.41;10087366;29;20258;-85
2022/09/17 20:44:14;;;;;;;4.33;1.00;;;;;;;13.85;43.41;100346.97;10094616;29;20261;-86
2022/09/17 20:49:36;;;;;;;6.30;0.93;;;;;;;13.87;43.06;100353.13;10089732;29;20265;-86
2022/09/17 20:54:59;;;;;;;7.20;1.10;;;;;;;13.69;44.15;100360.22;10094824;29;20245;-84
2022/09/17 21:00:25;;;;;;;5.77;1.10;;;;;;;13.74;44.78;100368.50;10078920;29;20281;-85
2022/09/17 21:05:47;;;;;;;7.43;1.47;;;;;;;14.05;44.26;100359.38;10089731;29;20233;-87
2022/09/17 21:11:09;;;;;;;6.63;1.33;;;;;;;14.13;43.93;100357.56;10088177;29;20615;-85
2022/09/17 21:16:31;;;;;;;6.77;1.20;;;;;;;13.32;46.46;100365.09;10106167;29;20295;-88
2022/09/17 21:21:55;;;;;;;8.13;1.27;;;;;;;13.67;45.35;100359.78;10099170;29;20281;-83
2022/09/17 21:27:18;;;;;;;8.60;1.27;;;;;;;14.00;45.02;100356.78;10090567;29;20249;-87
2022/09/17 21:32:40;;;;;;;5.17;1.03;;;;;;;13.13;46.71;100362.81;10109172;29;20241;-88
2022/09/17 21:38:02;;;;;;;5.00;1.10;;;;;;;13.57;46.13;100363.91;10092120;29;20229;-88
2022/09/17 21:43:25;;;;;;;6.27;1.10;;;;;;;13.70;45.67;100370.38;10092824;29;20279;-86
2022/09/17 21:48:49;;;;;;;9.27;1.60;;;;;;;13.23;46.78;100375.72;10124840;29;20253;-86
2022/09/17 21:54:14;;;;;;;8.43;1.53;;;;;;;13.59;45.84;100361.53;10090554;29;20213;-85
2022/09/17 21:59:36;;;;;;;7.23;1.17;;;;;;;13.02;47.34;100370.94;10099341;29;20606;-86
2022/09/17 22:04:58;;;;;;;7.57;1.43;;;;;;;13.28;46.63;100376.31;10092771;29;20209;-87
2022/09/17 22:10:20;;;;;;;4.27;1.27;;;;;;;13.67;45.39;100373.94;10132426;29;20233;-79
2022/09/17 22:15:42;;;;;;;4.57;1.50;;;;;;;13.37;46.22;100377.03;10123103;29;20221;-81
2022/09/17 22:21:12;;;;;;;7.17;1.10;;;;;;;13.20;47.24;100388.56;10103158;29;20210;-81
2022/09/17 22:26:37;;;;;;;6.07;1.23;;;;;;;12.47;48.72;100377.03;10111168;29;20265;-81
2022/09/17 22:31:59;;;;;;;3.77;0.83;;;;;;;13.34;46.87;100386.22;10087594;29;20212;-81
2022/09/17 22:37:21;;;;;;;4.40;0.83;;;;;;;13.21;47.24;100390.22;10103976;29;20223;-81
2022/09/17 22:42:43;;;;;;;6.73;0.80;;;;;;;12.72;49.07;100382.78;10095027;29;20438;-80
2022/09/17 22:48:05;;;;;;;7.43;1.17;;;;;;;13.39;47.36;100374.66;10093499;29;20280;-81
2022/09/17 22:53:27;;;;;;;3.63;0.63;;;;;;;13.35;47.63;100373.72;10107612;29;20214;-81
2022/09/17 22:58:49;;;;;;;4.23;0.80;;;;;;;12.50;49.59;100376.34;10090926;29;20199;-81
2022/09/17 23:04:11;;;;;;;8.77;0.90;;;;;;;12.82;49.23;100373.84;10096829;29;20214;-81
2022/09/17 23:09:33;;;;;;;4.10;1.00;;;;;;;12.60;49.03;100358.94;10088602;29;20438;-80
2022/09/17 23:14:55;;;;;;;4.03;0.80;;;;;;;13.50;48.10;100368.53;10097511;29;20226;-81
2022/09/17 23:20:17;;;;;;;4.17;1.10;;;;;;;13.10;48.52;100366.34;10093955;29;20225;-81
2022/09/17 23:25:39;;;;;;;4.73;0.63;;;;;;;13.31;47.96;100360.59;10090440;29;20643;-81
2022/09/17 23:31:10;;;;;;;3.50;0.93;;;;;;;13.56;47.42;100358.59;10092475;29;20261;-81
2022/09/17 23:36:35;;;;;;;6.43;0.80;;;;;;;13.18;48.79;100356.91;10083737;29;20209;-80
2022/09/17 23:41:57;;;;;;;5.40;1.17;;;;;;;13.52;47.86;100352.84;10087840;29;20213;-80
2022/09/17 23:47:19;;;;;;;4.27;0.70;;;;;;;13.17;49.09;100360.91;10091533;29;20247;-80
2022/09/17 23:52:41;;;;;;;3.17;0.70;;;;;;;12.82;49.94;100360.53;10090218;29;20202;-80
2022/09/17 23:58:03;;;;;;;5.80;1.33;;;;;;;13.29;48.73;100363.78;10089333;29;20218;-80
